M.o.m. — WDE6166 — position and weather

sailwx.info

Track history (hours):
 
Tides and Currents Weather Stations Pressure Air Temp Water Temp Dewpoint Dewpoint Depression Visibility Wind Speed Wind Dir Waves Ship Positions

M.o.m.

Owner: Anderson, Carl W, Lopez Island, WA. More information available from US FCC via Universal Licensing System and Coast Guard Vessel Documentation Center.

Last reported at 2016-May-26 01:29 UTC. Time now 2016-May-26 18:28 UTC.
Position N 48°30' W 122°36'.

Length 11 m.

Type: Sailing vessel. MMSI: 367376770.

Date/timePositionNaut miles runAvg speedWind from/ knotsBaromVisibWave heightAir tempDewpointWater temp
2016-May-26 01:29N 48°30' W 122°36'2 2.2
2016-May-26 00:33N 48°31' W 122°33'26 1.0
2016-May-24 22:06N 48°05' W 122°26'6 5.9
2016-May-24 21:05N 47°60' W 122°21'3 5.8
2016-May-24 20:33N 47°57' W 122°21'5 5.2
2016-May-24 19:33N 47°52' W 122°23'6 5.7
2016-May-24 18:33N 47°46' W 122°24'6 5.5
2016-May-24 17:33N 47°41' W 122°24'0 0.0
2016-May-23 00:31N 47°41' W 122°24'0 0.0
2016-May-22 23:25N 47°41' W 122°24'0 0.4
2016-May-22 22:33N 47°41' W 122°25'4 4.0
2016-May-22 21:33N 47°37' W 122°26'6 5.6
2016-May-22 20:33N 47°31' W 122°24'4 4.3
2016-May-22 19:33N 47°27' W 122°23'3 3.3
2016-May-22 18:33N 47°24' W 122°22'3 3.1
2016-May-22 17:32N 47°21' W 122°24'4 4.0
2016-May-22 16:29N 47°17' W 122°27'1 0.1
2016-May-21 21:04N 47°16' W 122°26'3 5.6
2016-May-21 20:33N 47°19' W 122°26'6 5.7
2016-May-21 19:33N 47°24' W 122°23'6 6.2
2016-May-21 18:33N 47°30' W 122°26'6 6.1
2016-May-21 17:33N 47°36' W 122°28'6 6.0
2016-May-21 16:33N 47°41' W 122°30'2 0.1
2016-May-21 00:33N 47°43' W 122°31'6 5.7
2016-May-20 23:33N 47°48' W 122°29'7 6.8
2016-May-20 22:33N 47°55' W 122°31'36 7.2
2016-May-20 17:31N 48°30' W 122°42'4 3.8
2016-May-20 16:28N 48°31' W 122°37'0 0.1
2016-May-20 14:30N 48°31' W 122°36'0 0.0
2016-May-20 00:29N 48°31' W 122°36'0 0.1
2016-May-19 23:31N 48°31' W 122°36'5 5.3
2016-May-19 22:33N 48°31' W 122°44'5 5.2
2016-May-19 21:33N 48°33' W 122°51'4 3.5
2016-May-19 20:33N 48°31' W 122°55'0 0.0
2016-May-19 15:33N 48°31' W 122°55'0 0.0
2016-May-19 14:18N 48°31' W 122°55'0 0.1
2016-May-19 13:33N 48°31' W 122°55'0 0.0
2016-May-19 12:33N 48°31' W 122°55'  
2016-May-16 03:31N 48°31' W 122°55'0 0.0
2016-May-16 02:28N 48°31' W 122°55'0 0.0
2016-May-16 01:31N 48°31' W 122°55'  
Track history (hours):
 
Tides and Currents Weather Stations Pressure Air Temp Water Temp Dewpoint Dewpoint Depression Visibility Wind Speed Wind Dir Waves Ship Positions

M.o.m.

Owner: Anderson, Carl W, Lopez Island, WA. More information available from US FCC via Universal Licensing System and Coast Guard Vessel Documentation Center.

Last reported at 2016-May-26 01:29 UTC. Time now 2016-May-26 18:28 UTC.
Position N 48°30' W 122°36'.

Length 11 m.

Type: Sailing vessel. MMSI: 367376770.

Date/timePositionNaut miles runAvg speedWind from/ knotsBaromVisibWave heightAir tempDewpointWater temp
2016-May-26 01:29N 48°30' W 122°36'2 2.2
2016-May-26 00:33N 48°31' W 122°33'26 1.0
2016-May-24 22:06N 48°05' W 122°26'6 5.9
2016-May-24 21:05N 47°60' W 122°21'3 5.8
2016-May-24 20:33N 47°57' W 122°21'5 5.2
2016-May-24 19:33N 47°52' W 122°23'6 5.7
2016-May-24 18:33N 47°46' W 122°24'6 5.5
2016-May-24 17:33N 47°41' W 122°24'0 0.0
2016-May-23 00:31N 47°41' W 122°24'0 0.0
2016-May-22 23:25N 47°41' W 122°24'0 0.4
2016-May-22 22:33N 47°41' W 122°25'4 4.0
2016-May-22 21:33N 47°37' W 122°26'6 5.6
2016-May-22 20:33N 47°31' W 122°24'4 4.3
2016-May-22 19:33N 47°27' W 122°23'3 3.3
2016-May-22 18:33N 47°24' W 122°22'3 3.1
2016-May-22 17:32N 47°21' W 122°24'4 4.0
2016-May-22 16:29N 47°17' W 122°27'1 0.1
2016-May-21 21:04N 47°16' W 122°26'3 5.6
2016-May-21 20:33N 47°19' W 122°26'6 5.7
2016-May-21 19:33N 47°24' W 122°23'6 6.2
2016-May-21 18:33N 47°30' W 122°26'6 6.1
2016-May-21 17:33N 47°36' W 122°28'6 6.0
2016-May-21 16:33N 47°41' W 122°30'2 0.1
2016-May-21 00:33N 47°43' W 122°31'6 5.7
2016-May-20 23:33N 47°48' W 122°29'7 6.8
2016-May-20 22:33N 47°55' W 122°31'36 7.2
2016-May-20 17:31N 48°30' W 122°42'4 3.8
2016-May-20 16:28N 48°31' W 122°37'0 0.1
2016-May-20 14:30N 48°31' W 122°36'0 0.0
2016-May-20 00:29N 48°31' W 122°36'0 0.1
2016-May-19 23:31N 48°31' W 122°36'5 5.3
2016-May-19 22:33N 48°31' W 122°44'5 5.2
2016-May-19 21:33N 48°33' W 122°51'4 3.5
2016-May-19 20:33N 48°31' W 122°55'0 0.0
2016-May-19 15:33N 48°31' W 122°55'0 0.0
2016-May-19 14:18N 48°31' W 122°55'0 0.1
2016-May-19 13:33N 48°31' W 122°55'0 0.0
2016-May-19 12:33N 48°31' W 122°55'  
2016-May-16 03:31N 48°31' W 122°55'0 0.0
2016-May-16 02:28N 48°31' W 122°55'0 0.0
2016-May-16 01:31N 48°31' W 122°55'  

Dump ship's entire track history